createdAt,value
2019-03-24T00:01:41.353Z,15.32
2019-03-24T00:04:35.904Z,15.20
2019-03-24T00:07:31.252Z,15.17
2019-03-24T00:10:25.889Z,17.70
2019-03-24T00:13:20.876Z,14.28
2019-03-24T00:16:16.079Z,13.53
2019-03-24T00:19:12.116Z,13.10
2019-03-24T00:22:07.907Z,14.18
2019-03-24T00:25:03.121Z,14.63
2019-03-24T00:27:58.124Z,14.53
2019-03-24T00:30:53.338Z,15.05
2019-03-24T00:33:48.347Z,13.62
2019-03-24T00:36:43.581Z,13.63
2019-03-24T00:39:38.857Z,13.93
2019-03-24T00:42:33.953Z,13.00
2019-03-24T00:45:36.472Z,13.05
2019-03-24T00:48:25.326Z,13.27
2019-03-24T00:51:20.817Z,12.25
2019-03-24T00:54:16.159Z,12.60
2019-03-24T00:57:11.414Z,11.18
2019-03-24T01:00:07.499Z,12.70
2019-03-24T01:03:02.858Z,13.13
2019-03-24T01:05:58.076Z,12.68
2019-03-24T01:08:55.063Z,14.73
2019-03-24T01:11:50.734Z,14.30
2019-03-24T01:14:46.363Z,14.83
2019-03-24T01:17:41.458Z,13.03
2019-03-24T01:20:36.665Z,13.20
2019-03-24T01:23:32.425Z,13.05
2019-03-24T01:26:27.793Z,14.13
2019-03-24T01:29:23.402Z,14.50
2019-03-24T01:32:19.128Z,13.10
2019-03-24T01:35:15.913Z,13.25
2019-03-24T01:38:11.822Z,14.60
2019-03-24T01:41:08.207Z,13.15
2019-03-24T01:44:04.815Z,14.65
2019-03-24T01:46:59.936Z,13.83
2019-03-24T01:49:55.394Z,15.20
2019-03-24T01:52:52.691Z,14.98
2019-03-24T01:55:48.202Z,17.82
2019-03-24T01:58:43.580Z,14.65
2019-03-24T02:01:38.938Z,14.15
2019-03-24T02:04:34.090Z,16.07
2019-03-24T02:07:29.667Z,15.63
2019-03-24T02:10:25.508Z,14.85
2019-03-24T02:13:21.602Z,17.87
2019-03-24T02:16:17.205Z,13.38
2019-03-24T02:19:13.183Z,16.25
2019-03-24T02:22:09.387Z,14.23
2019-03-24T02:25:06.243Z,14.03
2019-03-24T02:28:01.522Z,14.05
2019-03-24T02:30:57.093Z,16.35
2019-03-24T02:33:53.498Z,14.68
2019-03-24T02:36:49.137Z,13.80
2019-03-24T02:39:45.482Z,14.18
2019-03-24T02:42:41.448Z,13.80
2019-03-24T02:45:36.562Z,15.30
2019-03-24T02:48:32.264Z,12.90
2019-03-24T02:51:28.540Z,13.32
2019-03-24T02:54:23.843Z,13.30
2019-03-24T02:57:18.952Z,13.40
2019-03-24T03:00:15.054Z,12.07
2019-03-24T03:03:10.312Z,12.40
2019-03-24T03:06:05.503Z,12.80
2019-03-24T03:09:01.075Z,12.47
2019-03-24T03:11:58.210Z,12.75
2019-03-24T03:14:53.413Z,12.85
2019-03-24T03:17:48.619Z,12.25
2019-03-24T03:20:44.111Z,12.33
2019-03-24T03:23:39.099Z,11.88
2019-03-24T03:26:35.175Z,12.40
2019-03-24T03:29:31.010Z,11.78
2019-03-24T03:32:26.530Z,11.90
2019-03-24T03:35:21.735Z,11.90
2019-03-24T03:38:17.434Z,11.83
2019-03-24T03:41:15.180Z,13.90
2019-03-24T03:44:10.568Z,11.88
2019-03-24T03:47:06.148Z,11.48
2019-03-24T03:50:01.353Z,11.33
2019-03-24T03:52:56.472Z,11.00
2019-03-24T03:55:51.750Z,12.07
2019-03-24T03:58:46.962Z,11.08
2019-03-24T04:01:41.953Z,10.35
2019-03-24T04:04:36.969Z,11.10
2019-03-24T04:07:32.171Z,11.78
2019-03-24T04:10:27.519Z,10.08
2019-03-24T04:13:22.897Z,10.20
2019-03-24T04:16:19.467Z,10.98
2019-03-24T04:19:14.826Z,9.65
2019-03-24T04:22:12.075Z,10.13
2019-03-24T04:25:07.514Z,10.70
2019-03-24T04:28:03.221Z,10.48
2019-03-24T04:31:00.295Z,9.75
2019-03-24T04:33:55.452Z,10.15
2019-03-24T04:36:51.290Z,9.00
2019-03-24T04:39:46.835Z,9.80
2019-03-24T04:42:43.465Z,9.80
2019-03-24T04:45:38.920Z,8.83
2019-03-24T04:48:34.012Z,8.38
2019-03-24T04:51:32.557Z,8.58
2019-03-24T04:54:28.179Z,9.48
2019-03-24T04:57:24.564Z,9.58
2019-03-24T05:00:21.976Z,9.58
2019-03-24T05:03:18.480Z,9.43
2019-03-24T05:06:14.433Z,9.38
2019-03-24T05:09:09.809Z,8.68
2019-03-24T05:12:06.109Z,9.30
2019-03-24T05:15:01.715Z,9.00
2019-03-24T05:17:58.551Z,8.98
2019-03-24T05:20:54.491Z,9.23
2019-03-24T05:23:49.779Z,9.15
2019-03-24T05:26:45.374Z,8.30
2019-03-24T05:29:40.823Z,9.03
2019-03-24T05:32:36.320Z,9.20
2019-03-24T05:35:31.605Z,9.53
2019-03-24T05:38:26.696Z,8.73
2019-03-24T05:41:22.122Z,8.48
2019-03-24T05:44:17.689Z,9.08
2019-03-24T05:47:13.235Z,8.70
2019-03-24T05:50:08.511Z,8.83
2019-03-24T05:53:05.136Z,8.75
2019-03-24T05:56:01.588Z,8.30
2019-03-24T05:58:56.783Z,8.35
2019-03-24T06:01:51.621Z,8.33
2019-03-24T06:04:47.038Z,8.28
2019-03-24T06:07:42.627Z,8.28
2019-03-24T06:10:37.834Z,7.55
2019-03-24T06:13:33.862Z,8.50
2019-03-24T06:16:29.757Z,8.30
2019-03-24T06:19:26.151Z,7.90
2019-03-24T06:22:21.530Z,8.38
2019-03-24T06:25:16.316Z,7.95
2019-03-24T06:28:11.314Z,8.30
2019-03-24T06:31:06.678Z,7.85
2019-03-24T06:34:01.697Z,7.58
2019-03-24T06:36:56.817Z,7.47
2019-03-24T06:39:51.943Z,8.13
2019-03-24T06:42:48.148Z,8.50
2019-03-24T06:45:44.937Z,7.53
2019-03-24T06:48:40.560Z,7.22
2019-03-24T06:51:35.661Z,7.33
2019-03-24T06:54:31.040Z,7.25
2019-03-24T06:57:26.251Z,7.50
2019-03-24T07:00:23.129Z,7.12
2019-03-24T07:03:18.338Z,7.65
2019-03-24T07:06:13.308Z,7.03
2019-03-24T07:09:09.451Z,7.28
2019-03-24T07:12:04.399Z,7.05
2019-03-24T07:14:59.485Z,6.97
2019-03-24T07:17:56.002Z,7.30
2019-03-24T07:20:51.318Z,6.55
2019-03-24T07:23:46.936Z,6.90
2019-03-24T07:26:42.227Z,6.45
2019-03-24T07:29:38.235Z,7.12
2019-03-24T07:32:34.168Z,6.83
2019-03-24T07:35:30.158Z,6.65
2019-03-24T07:38:26.189Z,6.40
2019-03-24T07:41:21.627Z,6.70
2019-03-24T07:44:17.053Z,6.90
2019-03-24T07:47:17.573Z,7.10
2019-03-24T07:50:13.477Z,7.37
2019-03-24T07:53:11.120Z,6.25
2019-03-24T07:56:08.857Z,6.70
2019-03-24T07:59:04.798Z,7.08
2019-03-24T08:02:00.419Z,6.92
2019-03-24T08:04:55.810Z,6.53
2019-03-24T08:07:52.180Z,5.97
2019-03-24T08:10:47.738Z,6.33
2019-03-24T08:13:53.301Z,6.87
2019-03-24T08:16:39.647Z,6.03
2019-03-24T08:19:35.644Z,6.60
2019-03-24T08:22:31.376Z,6.67
2019-03-24T08:25:26.705Z,6.25
2019-03-24T08:28:23.171Z,6.62
2019-03-24T08:31:18.908Z,7.45
2019-03-24T08:34:15.442Z,6.90
2019-03-24T08:37:11.077Z,6.87
2019-03-24T08:40:06.950Z,7.22
2019-03-24T08:43:04.519Z,6.90
2019-03-24T08:46:00.303Z,7.37
2019-03-24T08:48:56.245Z,6.60
2019-03-24T08:51:51.751Z,7.92
2019-03-24T08:54:47.361Z,6.40
2019-03-24T08:57:44.310Z,6.75
2019-03-24T09:00:40.058Z,6.70
2019-03-24T09:03:35.465Z,6.95
2019-03-24T09:06:31.416Z,7.40
2019-03-24T09:09:26.944Z,6.95
2019-03-24T09:12:22.402Z,7.35
2019-03-24T09:15:18.151Z,7.33
2019-03-24T09:18:13.533Z,7.30
2019-03-24T09:21:10.810Z,7.90
2019-03-24T09:24:06.386Z,6.85
2019-03-24T09:27:02.596Z,7.60
2019-03-24T09:29:58.208Z,6.90
2019-03-24T09:32:54.542Z,7.40
2019-03-24T09:35:51.056Z,6.60
2019-03-24T09:38:46.599Z,6.90
2019-03-24T09:41:41.971Z,7.50
2019-03-24T09:44:37.130Z,7.12
2019-03-24T09:47:32.287Z,6.75
2019-03-24T09:50:27.711Z,7.00
2019-03-24T09:53:24.987Z,6.55
2019-03-24T09:56:19.969Z,7.58
2019-03-24T09:59:14.920Z,6.70
2019-03-24T10:02:12.071Z,6.55
2019-03-24T10:05:07.952Z,7.83
2019-03-24T10:08:03.650Z,6.97
2019-03-24T10:10:58.958Z,6.95
2019-03-24T10:13:54.563Z,6.87
2019-03-24T10:16:50.093Z,7.35
2019-03-24T10:19:47.316Z,6.87
2019-03-24T10:22:43.967Z,7.30
2019-03-24T10:25:40.650Z,7.12
2019-03-24T10:28:36.780Z,7.35
2019-03-24T10:31:32.116Z,7.58
2019-03-24T10:34:27.257Z,7.37
2019-03-24T10:37:22.985Z,7.53
2019-03-24T10:40:28.258Z,6.78
2019-03-24T10:43:16.733Z,7.15
2019-03-24T10:46:11.894Z,7.33
2019-03-24T10:49:07.536Z,7.17
2019-03-24T10:52:02.616Z,7.28
2019-03-24T10:54:58.129Z,6.65
2019-03-24T10:57:53.126Z,6.70
2019-03-24T11:00:49.524Z,7.22
2019-03-24T11:03:45.041Z,6.92
2019-03-24T11:06:41.463Z,7.08
2019-03-24T11:09:37.451Z,6.62
2019-03-24T11:12:32.749Z,7.03
2019-03-24T11:15:28.043Z,7.78
2019-03-24T11:18:23.270Z,6.65
2019-03-24T11:21:18.909Z,6.95
2019-03-24T11:24:14.003Z,6.70
2019-03-24T11:27:09.713Z,6.47
2019-03-24T11:30:05.397Z,6.78
2019-03-24T11:33:01.246Z,6.70
2019-03-24T11:35:56.952Z,6.85
2019-03-24T11:38:52.274Z,7.05
2019-03-24T11:41:48.220Z,6.65
2019-03-24T11:44:44.188Z,6.83
2019-03-24T11:47:40.036Z,7.08
2019-03-24T11:50:35.791Z,7.65
2019-03-24T11:53:30.973Z,6.75
2019-03-24T11:56:27.446Z,6.42
2019-03-24T11:59:23.284Z,7.15
2019-03-24T12:02:19.079Z,7.75
2019-03-24T12:05:15.570Z,6.45
2019-03-24T12:08:11.172Z,6.85
2019-03-24T12:11:08.335Z,6.45
2019-03-24T12:14:04.575Z,6.80
2019-03-24T12:17:00.753Z,6.40
2019-03-24T12:19:57.251Z,6.50
2019-03-24T12:22:52.974Z,6.90
2019-03-24T12:25:49.050Z,7.37
2019-03-24T12:28:44.212Z,6.72
2019-03-24T12:31:41.031Z,6.72
2019-03-24T12:34:37.248Z,6.08
2019-03-24T12:37:33.649Z,5.87
2019-03-24T12:40:29.664Z,6.90
2019-03-24T12:43:25.059Z,6.40
2019-03-24T12:46:20.039Z,6.20
2019-03-24T12:49:15.372Z,6.58
2019-03-24T12:52:10.340Z,6.10
2019-03-24T12:55:05.358Z,6.35
2019-03-24T12:58:01.085Z,6.65
2019-03-24T13:00:56.186Z,7.67
2019-03-24T13:03:51.099Z,6.50
2019-03-24T13:06:46.938Z,6.40
2019-03-24T13:09:42.334Z,6.55
2019-03-24T13:12:37.542Z,6.17
2019-03-24T13:15:32.929Z,6.40
2019-03-24T13:18:28.511Z,6.50
2019-03-24T13:21:23.621Z,6.65
2019-03-24T13:24:19.648Z,6.58
2019-03-24T13:27:16.229Z,6.22
2019-03-24T13:30:12.976Z,5.72
2019-03-24T13:33:08.750Z,7.37
2019-03-24T13:36:13.220Z,6.28
2019-03-24T13:39:09.779Z,6.65
2019-03-24T13:42:05.297Z,6.17
2019-03-24T13:45:00.739Z,7.20
2019-03-24T13:47:55.792Z,6.50
2019-03-24T13:50:52.693Z,6.85
2019-03-24T13:53:47.771Z,6.70
2019-03-24T13:56:43.153Z,6.80
2019-03-24T13:59:38.577Z,6.40
2019-03-24T14:02:35.376Z,6.78
2019-03-24T14:05:31.859Z,6.97
2019-03-24T14:08:27.089Z,6.50
2019-03-24T14:11:24.225Z,7.20
2019-03-24T14:14:20.263Z,7.22
2019-03-24T14:17:15.325Z,7.25
2019-03-24T14:20:12.761Z,7.03
2019-03-24T14:23:08.100Z,7.72
2019-03-24T14:26:03.450Z,7.00
2019-03-24T14:28:59.718Z,7.70
2019-03-24T14:31:54.771Z,7.92
2019-03-24T14:34:51.511Z,7.42
2019-03-24T14:37:48.412Z,7.53
2019-03-24T14:40:44.862Z,7.92
2019-03-24T14:43:41.885Z,7.30
2019-03-24T14:46:37.740Z,7.62
2019-03-24T14:49:34.300Z,7.08
2019-03-24T14:52:30.118Z,8.13
2019-03-24T14:55:25.745Z,7.87
2019-03-24T14:58:22.159Z,8.75
2019-03-24T15:01:17.214Z,8.30
2019-03-24T15:04:12.792Z,7.75
2019-03-24T15:07:07.742Z,8.55
2019-03-24T15:10:03.197Z,7.80
2019-03-24T15:12:59.072Z,8.68
2019-03-24T15:15:54.562Z,10.85
2019-03-24T15:18:50.738Z,8.93
2019-03-24T15:21:48.186Z,8.38
2019-03-24T15:24:43.937Z,8.63
2019-03-24T15:27:39.984Z,8.20
2019-03-24T15:30:36.847Z,8.18
2019-03-24T15:33:32.325Z,8.85
2019-03-24T15:36:28.726Z,9.40
2019-03-24T15:39:24.571Z,9.50
2019-03-24T15:42:20.137Z,9.70
2019-03-24T15:45:16.108Z,9.45
2019-03-24T15:48:12.700Z,8.68
2019-03-24T15:51:16.329Z,9.53
2019-03-24T15:54:03.941Z,8.50
2019-03-24T15:56:59.531Z,9.08
2019-03-24T15:59:55.238Z,9.13
2019-03-24T16:02:50.548Z,9.85
2019-03-24T16:05:46.255Z,9.20
2019-03-24T16:08:41.452Z,9.05
2019-03-24T16:11:36.636Z,8.90
2019-03-24T16:14:31.524Z,8.75
2019-03-24T16:17:26.874Z,8.85
2019-03-24T16:20:22.485Z,8.53
2019-03-24T16:23:18.743Z,8.15
2019-03-24T16:26:15.038Z,8.65
2019-03-24T16:29:10.479Z,9.28
2019-03-24T16:32:06.079Z,8.63
2019-03-24T16:35:01.277Z,8.13
2019-03-24T16:37:56.832Z,9.03
2019-03-24T16:40:52.276Z,8.70
2019-03-24T16:43:47.897Z,9.00
2019-03-24T16:46:43.561Z,9.10
2019-03-24T16:49:39.033Z,9.45
2019-03-24T16:52:35.144Z,9.38
2019-03-24T16:55:32.894Z,9.13
2019-03-24T16:58:28.382Z,9.00
2019-03-24T17:01:23.906Z,9.60
2019-03-24T17:04:20.856Z,8.85
2019-03-24T17:07:17.007Z,9.73
2019-03-24T17:10:12.658Z,8.40
2019-03-24T17:13:08.187Z,9.33
2019-03-24T17:16:03.455Z,9.53
2019-03-24T17:18:59.260Z,9.05
2019-03-24T17:21:54.739Z,8.93
2019-03-24T17:24:52.519Z,9.03
2019-03-24T17:27:47.758Z,9.45
2019-03-24T17:30:43.360Z,9.15
2019-03-24T17:33:38.787Z,9.18
2019-03-24T17:36:35.969Z,8.88
2019-03-24T17:39:31.564Z,10.13
2019-03-24T17:42:27.233Z,9.20
2019-03-24T17:45:22.718Z,8.83
2019-03-24T17:48:19.897Z,9.48
2019-03-24T17:51:15.459Z,9.13
2019-03-24T17:54:11.197Z,9.80
2019-03-24T17:57:06.954Z,8.70
2019-03-24T18:00:02.631Z,9.03
2019-03-24T18:02:59.390Z,8.83
2019-03-24T18:05:56.598Z,8.43
2019-03-24T18:08:52.919Z,8.27
2019-03-24T18:11:48.378Z,8.63
2019-03-24T18:14:43.838Z,8.33
2019-03-24T18:17:39.995Z,8.20
2019-03-24T18:20:37.574Z,8.47
2019-03-24T18:23:34.561Z,8.17
2019-03-24T18:26:30.062Z,8.88
2019-03-24T18:29:25.924Z,8.17
2019-03-24T18:32:23.066Z,7.27
2019-03-24T18:35:18.363Z,8.20
2019-03-24T18:38:13.608Z,7.87
2019-03-24T18:41:08.804Z,8.08
2019-03-24T18:44:05.820Z,8.53
2019-03-24T18:47:02.381Z,8.60
2019-03-24T18:49:58.467Z,7.97
2019-03-24T18:52:54.312Z,8.30
2019-03-24T18:55:49.657Z,8.97
2019-03-24T18:58:44.707Z,8.77
2019-03-24T19:01:40.040Z,8.60
2019-03-24T19:04:35.257Z,9.03
2019-03-24T19:07:31.562Z,8.38
2019-03-24T19:10:26.388Z,8.87
2019-03-24T19:13:21.620Z,8.23
2019-03-24T19:16:16.898Z,8.83
2019-03-24T19:19:12.207Z,8.30
2019-03-24T19:22:07.720Z,8.90
2019-03-24T19:25:02.972Z,9.30
2019-03-24T19:27:58.488Z,8.87
2019-03-24T19:30:55.678Z,8.80
2019-03-24T19:33:51.191Z,8.50
2019-03-24T19:36:47.107Z,8.67
2019-03-24T19:39:42.371Z,8.87
2019-03-24T19:42:37.395Z,8.50
2019-03-24T19:45:32.455Z,7.40
2019-03-24T19:48:27.796Z,8.13
2019-03-24T19:51:24.310Z,8.50
2019-03-24T19:54:19.400Z,7.93
2019-03-24T19:57:15.684Z,8.47
2019-03-24T20:00:11.817Z,7.70
2019-03-24T20:03:08.397Z,7.63
2019-03-24T20:06:03.461Z,7.57
2019-03-24T20:08:58.804Z,7.47
2019-03-24T20:11:54.438Z,7.57
2019-03-24T20:14:50.108Z,7.73
2019-03-24T20:17:44.991Z,7.47
2019-03-24T20:20:42.054Z,7.33
2019-03-24T20:23:37.645Z,7.10
2019-03-24T20:26:33.118Z,7.67
2019-03-24T20:29:29.715Z,7.63
2019-03-24T20:32:24.993Z,8.50
2019-03-24T20:35:21.128Z,7.40
2019-03-24T20:38:16.195Z,7.23
2019-03-24T20:41:12.048Z,7.37
2019-03-24T20:44:07.267Z,7.80
2019-03-24T20:47:02.416Z,8.17
2019-03-24T20:49:58.266Z,7.27
2019-03-24T20:53:03.632Z,7.70
2019-03-24T20:55:51.160Z,8.13
2019-03-24T20:58:46.717Z,7.53
2019-03-24T21:01:42.080Z,8.63
2019-03-24T21:04:37.319Z,8.47
2019-03-24T21:07:32.874Z,8.33
2019-03-24T21:10:28.199Z,8.27
2019-03-24T21:13:23.271Z,8.43
2019-03-24T21:16:18.367Z,8.83
2019-03-24T21:19:13.769Z,8.47
2019-03-24T21:22:09.011Z,8.70
2019-03-24T21:25:04.133Z,9.60
2019-03-24T21:27:59.514Z,9.47
2019-03-24T21:30:54.327Z,10.63
2019-03-24T21:33:49.491Z,11.23
2019-03-24T21:36:44.531Z,10.30
2019-03-24T21:39:39.463Z,12.00
2019-03-24T21:42:34.922Z,11.97
2019-03-24T21:45:30.294Z,12.17
2019-03-24T21:48:25.313Z,11.60
2019-03-24T21:51:20.875Z,13.20
2019-03-24T21:54:15.775Z,12.83
2019-03-24T21:57:11.125Z,13.53
2019-03-24T22:00:06.910Z,13.03
2019-03-24T22:03:03.794Z,14.43
2019-03-24T22:05:58.810Z,13.87
2019-03-24T22:08:53.933Z,13.90
2019-03-24T22:11:48.784Z,14.93
2019-03-24T22:14:43.988Z,14.43
2019-03-24T22:17:39.420Z,14.43
2019-03-24T22:20:34.848Z,14.50
2019-03-24T22:23:30.101Z,14.20
2019-03-24T22:26:25.087Z,13.90
2019-03-24T22:29:20.254Z,15.27
2019-03-24T22:32:15.504Z,14.70
2019-03-24T22:35:10.750Z,15.10
2019-03-24T22:38:05.714Z,15.50
2019-03-24T22:41:00.858Z,16.43
2019-03-24T22:43:56.536Z,15.73
2019-03-24T22:46:51.647Z,16.53
2019-03-24T22:49:46.620Z,16.80
2019-03-24T22:52:41.929Z,16.37
2019-03-24T22:55:37.141Z,16.67
2019-03-24T22:58:32.277Z,15.75
2019-03-24T23:01:27.329Z,16.75
2019-03-24T23:04:21.978Z,18.47
2019-03-24T23:07:17.228Z,17.70
2019-03-24T23:10:12.641Z,18.83
2019-03-24T23:13:08.109Z,19.77
2019-03-24T23:16:04.185Z,18.67
2019-03-24T23:18:59.303Z,19.10
2019-03-24T23:21:54.191Z,18.17
2019-03-24T23:24:49.746Z,19.15
2019-03-24T23:27:45.024Z,19.05
2019-03-24T23:30:39.956Z,20.65
2019-03-24T23:33:34.949Z,20.30
2019-03-24T23:36:30.430Z,19.10
2019-03-24T23:39:25.849Z,20.12
2019-03-24T23:42:21.229Z,20.27
2019-03-24T23:45:16.579Z,20.97
2019-03-24T23:48:11.960Z,24.03
2019-03-24T23:51:07.196Z,20.88
2019-03-24T23:54:02.625Z,23.67
2019-03-24T23:56:58.035Z,20.50
2019-03-24T23:59:53.361Z,23.70
